Time;durP1;ratioP1;P1;durP2;ratioP2;P2;SDS_P1;SDS_P2;PMS_P1;PMS_P2;Temp;Humidity;BMP_temperature;BMP_pressure;BME280_temperature;BME280_humidity;BME280_pressure;Samples;Min_cycle;Max_cycle;Signal;HPM_P1;HPM_P2
2023/12/04 00:00:06;;;;;;;181.83;9.67;;;;;;;23.70;40.32;99889.34;7288562;19;130181;-38
2023/12/04 00:02:32;;;;;;;185.15;10.13;;;;;;;23.69;40.31;99862.25;7286285;19;131415;-39
2023/12/04 00:04:57;;;;;;;228.40;12.10;;;;;;;23.87;40.22;99885.91;7287574;19;130171;-39
2023/12/04 00:07:22;;;;;;;272.80;14.03;;;;;;;24.00;39.54;99882.00;7287802;19;130724;-40
2023/12/04 00:09:48;;;;;;;169.73;9.70;;;;;;;23.98;40.29;99883.94;7287762;19;129138;-39
2023/12/04 00:12:13;;;;;;;150.52;8.48;;;;;;;23.89;39.93;99869.06;7288055;19;129747;-37
2023/12/04 00:14:38;;;;;;;177.97;10.13;;;;;;;23.92;39.60;99881.03;7286183;19;130203;-39
2023/12/04 00:17:04;;;;;;;214.80;11.60;;;;;;;23.83;39.90;99890.63;7286858;19;129740;-39
2023/12/04 00:19:29;;;;;;;197.68;11.10;;;;;;;23.77;40.38;99885.97;7285008;19;130234;-37
2023/12/04 00:21:55;;;;;;;182.13;10.13;;;;;;;23.61;40.81;99888.41;7287672;19;130723;-41
2023/12/04 00:24:20;;;;;;;209.47;10.90;;;;;;;23.53;40.62;99887.47;7287093;19;131469;-34
2023/12/04 00:26:45;;;;;;;239.67;12.47;;;;;;;23.46;41.18;99876.75;7286530;19;130251;-36
2023/12/04 00:29:11;;;;;;;169.57;9.35;;;;;;;23.24;41.31;99850.81;7284672;19;129618;-36
2023/12/04 00:31:36;;;;;;;168.80;9.27;;;;;;;23.13;41.02;99848.38;7282554;19;129397;-42
2023/12/04 00:34:02;;;;;;;216.40;11.30;;;;;;;23.15;41.77;99873.50;7286060;19;130156;-40
2023/12/04 00:36:27;;;;;;;199.27;10.73;;;;;;;23.01;41.00;99868.72;7286520;19;130658;-37
2023/12/04 00:38:52;;;;;;;131.32;7.85;;;;;;;23.01;41.52;99870.50;7286309;19;130963;-36
2023/12/04 00:41:18;;;;;;;192.27;10.93;;;;;;;22.92;41.79;99866.13;7284613;19;129124;-37
2023/12/04 00:43:43;;;;;;;279.67;14.23;;;;;;;22.85;41.42;99872.91;7282463;19;129582;-42
2023/12/04 00:46:09;;;;;;;205.70;11.00;;;;;;;22.79;41.60;99860.34;7282049;19;131061;-35
2023/12/04 00:48:34;;;;;;;249.53;13.33;;;;;;;22.68;42.21;99863.13;7279445;19;130467;-36
2023/12/04 00:50:59;;;;;;;140.52;8.35;;;;;;;22.60;41.88;99849.88;7286958;19;130633;-36
2023/12/04 00:53:24;;;;;;;188.30;9.50;;;;;;;22.55;42.40;99862.56;7294660;19;132458;-37
2023/12/04 00:55:50;;;;;;;212.85;11.82;;;;;;;22.49;42.95;99856.09;7290946;19;130536;-39
2023/12/04 00:58:15;;;;;;;318.80;16.33;;;;;;;22.47;42.69;99859.78;7284046;19;130263;-41
2023/12/04 01:00:41;;;;;;;285.87;14.63;;;;;;;22.41;42.82;99845.44;7288713;19;130605;-39
2023/12/04 01:03:06;;;;;;;289.87;15.30;;;;;;;22.41;43.17;99842.03;7291472;19;130276;-40
2023/12/04 01:05:31;;;;;;;268.58;14.32;;;;;;;22.42;42.89;99843.66;7287203;19;130642;-38
2023/12/04 01:07:57;;;;;;;164.55;9.40;;;;;;;22.33;42.50;99813.09;7289778;19;131362;-41
2023/12/04 01:10:22;;;;;;;198.43;10.57;;;;;;;22.62;42.16;99846.19;7283955;19;129739;-41
2023/12/04 01:12:48;;;;;;;192.90;10.43;;;;;;;22.76;41.94;99844.88;7293724;19;133329;-40
2023/12/04 01:15:13;;;;;;;199.35;10.52;;;;;;;22.99;41.65;99849.66;7290965;19;131349;-41
2023/12/04 01:17:39;;;;;;;220.77;12.10;;;;;;;23.10;40.93;99857.38;7285934;19;131370;-37
2023/12/04 01:20:05;;;;;;;245.27;12.47;;;;;;;23.16;40.62;99855.97;7287912;19;129383;-37
2023/12/04 01:22:30;;;;;;;223.30;11.37;;;;;;;23.20;40.38;99842.41;7287333;19;133075;-39
2023/12/04 01:24:55;;;;;;;249.20;12.98;;;;;;;23.42;40.44;99858.81;7287128;19;129768;-38
2023/12/04 01:27:21;;;;;;;249.23;12.77;;;;;;;23.61;40.02;99859.53;7288483;19;130885;-38
2023/12/04 01:29:46;;;;;;;185.70;10.10;;;;;;;23.69;40.33;99867.50;7291101;19;130928;-40
2023/12/04 01:32:11;;;;;;;209.57;11.13;;;;;;;23.78;39.85;99866.66;7287193;19;130243;-38
2023/12/04 01:34:37;;;;;;;172.75;9.15;;;;;;;23.89;39.49;99855.09;7292408;19;130028;-38
2023/12/04 01:37:02;;;;;;;167.60;9.30;;;;;;;23.99;39.38;99863.75;7291463;19;129263;-37
2023/12/04 01:39:28;;;;;;;184.40;9.47;;;;;;;24.00;38.95;99865.41;7290345;19;129946;-37
2023/12/04 01:41:53;;;;;;;219.25;11.50;;;;;;;23.83;39.45;99848.63;7292420;19;132043;-40
2023/12/04 01:44:18;;;;;;;236.57;11.68;;;;;;;23.81;39.28;99868.97;7288446;19;130165;-41
2023/12/04 01:46:44;;;;;;;261.37;13.73;;;;;;;23.74;39.80;99867.06;7293011;19;129524;-39
2023/12/04 01:49:10;;;;;;;267.87;13.47;;;;;;;23.63;39.99;99868.09;7281397;19;131223;-36
2023/12/04 01:51:35;;;;;;;212.47;11.03;;;;;;;23.56;39.87;99872.28;7285199;19;131621;-38
2023/12/04 01:54:03;;;;;;;166.87;8.50;;;;;;;23.45;40.64;99867.22;7291804;19;131626;-40
2023/12/04 01:56:29;;;;;;;294.13;14.75;;;;;;;23.34;40.34;99871.84;7282519;19;131755;-35
2023/12/04 01:58:55;;;;;;;285.38;14.38;;;;;;;23.17;40.76;99866.31;7284321;19;132518;-39
2023/12/04 02:01:20;;;;;;;165.57;8.67;;;;;;;23.09;40.67;99862.75;7284248;19;131891;-37
2023/12/04 02:03:46;;;;;;;225.27;12.10;;;;;;;22.86;41.22;99840.44;7285105;19;131094;-37
2023/12/04 02:06:12;;;;;;;132.03;7.90;;;;;;;22.91;41.22;99864.44;7284420;19;130745;-37
2023/12/04 02:08:38;;;;;;;238.20;11.50;;;;;;;22.83;40.90;99869.56;7288901;19;129760;-39
2023/12/04 02:11:03;;;;;;;175.00;9.23;;;;;;;22.71;41.73;99861.03;7285931;19;131273;-41
2023/12/04 02:13:28;;;;;;;170.38;9.05;;;;;;;22.52;41.85;99837.47;7288097;19;130164;-36
2023/12/04 02:15:57;;;;;;;232.55;11.70;;;;;;;22.39;41.83;99825.63;7287204;19;130265;-36
2023/12/04 02:18:24;;;;;;;202.55;10.57;;;;;;;22.45;42.09;99833.75;7284167;19;132197;-40
2023/12/04 02:20:49;;;;;;;205.80;11.07;;;;;;;22.42;42.03;99830.56;7283198;19;130893;-37
2023/12/04 02:23:15;;;;;;;191.23;9.85;;;;;;;22.44;41.60;99826.03;7290514;19;130259;-41
2023/12/04 02:25:40;;;;;;;249.32;11.77;;;;;;;22.55;41.59;99826.72;7291676;19;129616;-41
2023/12/04 02:28:09;;;;;;;210.83;10.93;;;;;;;22.66;41.77;99820.53;7289897;19;132597;-39
2023/12/04 02:30:37;;;;;;;184.05;9.45;;;;;;;22.82;41.29;99818.13;7289021;19;130322;-40
2023/12/04 02:33:05;;;;;;;145.65;7.80;;;;;;;22.97;41.29;99821.94;7290659;19;131529;-40
2023/12/04 02:35:33;;;;;;;216.27;10.63;;;;;;;23.06;41.07;99813.22;7291188;19;130165;-38
2023/12/04 02:37:59;;;;;;;216.07;11.40;;;;;;;23.21;40.68;99819.63;7290556;19;129227;-41
2023/12/04 02:40:25;;;;;;;206.30;10.47;;;;;;;23.36;40.28;99826.09;7288430;19;130412;-41
2023/12/04 02:42:50;;;;;;;189.95;10.15;;;;;;;23.50;39.93;99809.03;7288800;19;130292;-38
2023/12/04 02:45:16;;;;;;;228.50;10.82;;;;;;;23.56;39.36;99813.69;7289631;19;130193;-39
2023/12/04 02:47:41;;;;;;;240.20;11.90;;;;;;;23.53;39.20;99778.09;7287561;19;131024;-38
2023/12/04 02:50:07;;;;;;;180.57;9.20;;;;;;;23.76;39.41;99795.06;7285945;19;131952;-39
2023/12/04 02:52:32;;;;;;;180.77;9.33;;;;;;;23.84;38.78;99787.28;7287722;19;131315;-39
2023/12/04 02:54:57;;;;;;;250.15;12.55;;;;;;;23.86;39.53;99785.31;7289103;19;129036;-36
2023/12/04 02:57:23;;;;;;;221.30;11.60;;;;;;;23.88;39.36;99770.22;7287511;19;130133;-39
2023/12/04 02:59:48;;;;;;;227.07;11.40;;;;;;;23.85;39.35;99778.41;7288401;19;133124;-38
2023/12/04 03:02:14;;;;;;;178.27;9.00;;;;;;;23.78;39.24;99777.38;7286323;19;132005;-39
2023/12/04 03:04:39;;;;;;;187.23;8.97;;;;;;;23.68;39.14;99771.38;7288755;19;129401;-36
2023/12/04 03:07:04;;;;;;;164.90;8.93;;;;;;;23.57;39.76;99763.69;7288565;19;129395;-36
2023/12/04 03:09:30;;;;;;;169.85;8.77;;;;;;;23.46;39.83;99763.06;7286976;19;129676;-40
2023/12/04 03:11:55;;;;;;;233.53;11.53;;;;;;;23.21;40.36;99738.31;7288572;19;129792;-41
2023/12/04 03:14:20;;;;;;;235.20;11.40;;;;;;;23.20;39.96;99753.22;7288444;19;130486;-40
2023/12/04 03:16:46;;;;;;;187.80;8.83;;;;;;;23.09;40.79;99752.59;7288563;19;131273;-38
2023/12/04 03:19:11;;;;;;;181.70;9.75;;;;;;;23.05;41.01;99753.88;7285757;19;131304;-38
2023/12/04 03:21:36;;;;;;;221.73;10.87;;;;;;;22.78;40.79;99728.47;7273740;19;130920;-39
2023/12/04 03:24:02;;;;;;;198.17;9.80;;;;;;;22.82;40.75;99755.22;7289008;19;129840;-41
2023/12/04 03:26:28;;;;;;;197.97;9.77;;;;;;;22.69;40.95;99738.97;7290218;19;129617;-42
2023/12/04 03:28:53;;;;;;;234.23;11.73;;;;;;;22.66;41.70;99749.75;7288021;19;130638;-39
2023/12/04 03:31:18;;;;;;;209.07;10.10;;;;;;;22.56;41.16;99744.53;7289991;19;131368;-39
2023/12/04 03:33:44;;;;;;;170.00;8.38;;;;;;;22.52;41.24;99752.78;7292171;19;130618;-40
2023/12/04 03:36:09;;;;;;;176.60;9.23;;;;;;;22.45;41.74;99746.44;7291611;19;130187;-41
2023/12/04 03:38:35;;;;;;;159.63;8.73;;;;;;;22.46;41.90;99754.16;7288310;19;130716;-40
2023/12/04 03:41:00;;;;;;;213.87;10.83;;;;;;;22.48;41.61;99746.16;7286498;19;129211;-38
2023/12/04 03:43:25;;;;;;;161.00;8.30;;;;;;;22.60;41.48;99742.44;7289763;19;130925;-38
2023/12/04 03:45:51;;;;;;;211.43;11.00;;;;;;;22.76;41.42;99737.41;7289231;19;131060;-39
2023/12/04 03:48:16;;;;;;;205.83;10.30;;;;;;;22.87;40.79;99735.44;7287621;19;130642;-40
2023/12/04 03:50:41;;;;;;;191.45;9.15;;;;;;;23.02;40.26;99738.44;7289692;19;130387;-39
2023/12/04 03:53:07;;;;;;;123.22;7.38;;;;;;;23.05;40.60;99730.28;7289189;19;129834;-39
2023/12/04 03:55:32;;;;;;;173.68;9.00;;;;;;;23.20;40.27;99726.19;7288637;19;129976;-38
2023/12/04 03:57:59;;;;;;;202.23;10.10;;;;;;;23.35;40.14;99726.53;7287659;19;130510;-40
2023/12/04 04:00:24;;;;;;;210.25;10.25;;;;;;;23.30;39.51;99708.63;7285088;19;130829;-39
2023/12/04 04:02:49;;;;;;;202.93;10.13;;;;;;;23.54;39.73;99727.25;7285597;19;129455;-37
2023/12/04 04:05:15;;;;;;;155.38;8.10;;;;;;;23.65;39.39;99728.84;7285242;19;129441;-37
2023/12/04 04:07:41;;;;;;;187.13;9.15;;;;;;;23.68;39.35;99736.41;7286154;19;130321;-38
2023/12/04 04:10:07;;;;;;;205.43;10.07;;;;;;;23.82;39.33;99731.44;7283940;19;130055;-41
2023/12/04 04:12:33;;;;;;;142.97;7.77;;;;;;;23.82;39.08;99726.19;7288660;19;130373;-39
2023/12/04 04:14:58;;;;;;;185.77;9.97;;;;;;;23.80;38.76;99725.50;7287371;19;129481;-39
2023/12/04 04:17:26;;;;;;;232.00;12.07;;;;;;;23.61;39.21;99695.97;7287511;19;131025;-38
2023/12/04 04:19:52;;;;;;;204.80;10.07;;;;;;;23.64;39.06;99714.88;7287023;19;130752;-37
2023/12/04 04:22:21;;;;;;;184.57;9.30;;;;;;;23.52;39.19;99721.31;7287322;19;131210;-39
2023/12/04 04:24:48;;;;;;;184.85;9.50;;;;;;;23.47;39.64;99720.13;7289366;19;129593;-37
2023/12/04 04:27:13;;;;;;;190.15;9.48;;;;;;;23.30;39.85;99713.88;7295169;19;130643;-40
2023/12/04 04:29:38;;;;;;;202.95;9.95;;;;;;;23.23;40.66;99712.78;7294068;19;131087;-38
2023/12/04 04:32:04;;;;;;;190.27;9.87;;;;;;;23.11;40.63;99714.78;7296185;19;131180;-39
2023/12/04 04:34:30;;;;;;;154.37;8.83;;;;;;;22.98;40.72;99718.72;7293517;19;129984;-38
2023/12/04 04:36:55;;;;;;;276.50;13.55;;;;;;;22.96;40.70;99705.75;7293998;19;130460;-39
2023/12/04 04:39:20;;;;;;;209.98;10.70;;;;;;;23.02;41.08;99704.34;7293778;19;130756;-40
2023/12/04 04:41:46;;;;;;;181.50;9.63;;;;;;;23.44;39.67;99702.03;7292520;19;130283;-41
2023/12/04 04:44:11;;;;;;;116.13;7.00;;;;;;;23.97;39.19;99698.44;7293216;19;129863;-38
2023/12/04 04:46:36;;;;;;;172.87;8.43;;;;;;;24.59;37.48;99699.19;7292356;19;129924;-38
2023/12/04 04:49:02;;;;;;;198.07;9.83;;;;;;;25.13;36.27;99688.25;7292752;19;129553;-40
2023/12/04 04:51:29;;;;;;;212.67;10.63;;;;;;;25.36;36.05;99682.28;7293615;19;130532;-39
2023/12/04 04:53:54;;;;;;;217.90;10.77;;;;;;;25.63;35.29;99683.81;7292499;19;129593;-38
2023/12/04 04:56:19;;;;;;;230.30;10.90;;;;;;;25.79;35.23;99681.16;7292758;19;132194;-40
2023/12/04 04:58:45;;;;;;;168.97;8.57;;;;;;;25.88;35.35;99676.72;7295227;19;132055;-41
2023/12/04 05:01:10;;;;;;;194.43;9.43;;;;;;;25.88;35.11;99680.19;7293774;19;132044;-41
2023/12/04 05:03:36;;;;;;;197.07;10.07;;;;;;;26.10;35.19;99674.25;7294510;19;130118;-40
2023/12/04 05:06:01;;;;;;;211.67;11.20;;;;;;;26.12;34.66;99680.19;7292602;19;131038;-38
2023/12/04 05:08:27;;;;;;;159.87;8.40;;;;;;;26.12;34.76;99687.25;7291109;19;133819;-37
2023/12/04 05:10:52;;;;;;;159.23;8.63;;;;;;;26.08;34.46;99678.88;7291195;19;130835;-37
2023/12/04 05:13:17;;;;;;;234.30;10.93;;;;;;;26.19;34.41;99690.88;7293750;19;130070;-39
2023/12/04 05:15:43;;;;;;;225.73;11.37;;;;;;;26.19;34.33;99685.63;7290627;19;130114;-39
2023/12/04 05:18:08;;;;;;;124.37;7.23;;;;;;;26.20;34.35;99695.16;7291882;19;130386;-38
2023/12/04 05:20:33;;;;;;;158.07;8.13;;;;;;;26.23;34.72;99694.84;7289092;19;129729;-38
2023/12/04 05:22:59;;;;;;;236.90;11.03;;;;;;;26.19;34.48;99693.53;7292423;19;129159;-39
2023/12/04 05:25:24;;;;;;;221.03;10.67;;;;;;;26.27;34.80;99696.16;7293982;19;130661;-41
2023/12/04 05:27:49;;;;;;;190.27;9.57;;;;;;;26.17;34.85;99691.06;7291405;19;130299;-40
2023/12/04 05:30:15;;;;;;;195.97;9.63;;;;;;;26.11;34.69;99686.47;7287590;19;129401;-37
2023/12/04 05:32:40;;;;;;;204.10;9.67;;;;;;;26.20;34.83;99677.53;7292509;19;129811;-38
2023/12/04 05:35:06;;;;;;;256.33;12.37;;;;;;;26.29;34.60;99678.34;7287957;19;130129;-40
2023/12/04 05:37:32;;;;;;;297.03;14.70;;;;;;;26.13;34.51;99673.91;7283550;19;130473;-38
2023/12/04 05:39:57;;;;;;;162.60;8.67;;;;;;;26.00;35.05;99665.66;7285654;19;129175;-38
2023/12/04 05:42:22;;;;;;;247.97;11.70;;;;;;;25.86;35.03;99661.09;7282633;19;129564;-38
2023/12/04 05:44:48;;;;;;;199.77;9.90;;;;;;;25.49;35.52;99637.88;7290650;19;130961;-38
2023/12/04 05:47:14;;;;;;;148.27;8.00;;;;;;;25.39;36.03;99646.91;7293034;19;132411;-38
2023/12/04 05:49:40;;;;;;;220.43;10.75;;;;;;;25.28;36.55;99639.28;7288966;19;131293;-38
2023/12/04 05:52:05;;;;;;;233.87;11.73;;;;;;;25.18;36.50;99635.97;7289764;19;131231;-39
2023/12/04 05:54:30;;;;;;;178.93;9.27;;;;;;;25.07;37.21;99631.03;7290181;19;130502;-39
2023/12/04 05:56:56;;;;;;;178.25;9.25;;;;;;;24.90;37.13;99593.34;7289431;19;129206;-39
2023/12/04 05:59:21;;;;;;;132.83;7.13;;;;;;;25.09;36.84;99608.03;7289180;19;129394;-38
2023/12/04 06:01:46;;;;;;;191.90;9.17;;;;;;;25.31;37.77;99602.13;7289782;19;131114;-39
2023/12/04 06:04:12;;;;;;;191.20;9.17;;;;;;;25.32;37.30;99603.78;7289169;19;130255;-39
2023/12/04 06:06:37;;;;;;;201.27;9.83;;;;;;;25.45;37.48;99598.88;7290457;19;129477;-39
2023/12/04 06:09:03;;;;;;;281.88;13.05;;;;;;;25.44;37.48;99598.06;7288721;19;131259;-39
2023/12/04 06:11:28;;;;;;;211.77;10.33;;;;;;;25.48;37.61;99598.56;7291126;19;130226;-39
2023/12/04 06:13:53;;;;;;;176.00;8.53;;;;;;;25.50;37.55;99591.31;7290037;19;130252;-39
2023/12/04 06:16:19;;;;;;;168.20;8.23;;;;;;;25.57;37.61;99597.53;7288005;19;130985;-39
2023/12/04 06:18:44;;;;;;;232.50;10.67;;;;;;;25.58;37.62;99600.00;7290795;19;129374;-39
2023/12/04 06:21:09;;;;;;;258.13;12.70;;;;;;;25.44;38.08;99603.31;7290731;19;131290;-36
2023/12/04 06:23:35;;;;;;;174.83;8.47;;;;;;;25.35;38.19;99603.47;7291200;19;130826;-39
2023/12/04 06:26:01;;;;;;;217.90;10.93;;;;;;;25.20;38.72;99594.56;7289215;19;130235;-38
2023/12/04 06:28:26;;;;;;;173.37;8.63;;;;;;;25.06;39.15;99592.53;7288766;19;131237;-44
2023/12/04 06:30:52;;;;;;;189.57;9.15;;;;;;;24.87;40.08;99591.06;7290424;19;130153;-39
2023/12/04 06:33:20;;;;;;;139.20;7.17;;;;;;;24.70;40.14;99606.91;7289622;19;130953;-38
2023/12/04 06:35:45;;;;;;;221.50;10.57;;;;;;;24.58;40.33;99614.25;7288437;19;130758;-38
2023/12/04 06:38:15;;;;;;;251.03;12.07;;;;;;;24.61;40.71;99613.13;7280863;19;130666;-39
2023/12/04 06:40:41;;;;;;;209.95;9.85;;;;;;;24.71;40.53;99609.38;7289175;19;129496;-39
2023/12/04 06:43:07;;;;;;;185.00;9.80;;;;;;;24.78;40.34;99609.56;7288334;19;130697;-38
2023/12/04 06:45:33;;;;;;;200.10;9.67;;;;;;;24.85;40.42;99613.22;7289494;19;130299;-38
2023/12/04 06:47:59;;;;;;;227.37;10.37;;;;;;;24.90;40.37;99608.31;7288437;19;132210;-38
2023/12/04 06:50:24;;;;;;;211.85;10.18;;;;;;;25.04;40.24;99610.31;7284381;19;130878;-39
2023/12/04 06:52:49;;;;;;;199.70;9.47;;;;;;;25.02;39.79;99612.28;7288360;19;131961;-38
2023/12/04 06:55:15;;;;;;;217.03;10.63;;;;;;;25.04;40.00;99611.13;7287653;19;131315;-38
2023/12/04 06:57:40;;;;;;;217.80;9.83;;;;;;;25.12;40.39;99612.97;7288158;19;129790;-39
2023/12/04 07:00:07;;;;;;;191.93;9.47;;;;;;;25.16;39.97;99615.09;7288092;19;130244;-39
2023/12/04 07:02:32;;;;;;;178.18;8.85;;;;;;;25.21;39.74;99607.53;7286371;19;132303;-38
2023/12/04 07:04:58;;;;;;;242.20;11.57;;;;;;;25.20;39.79;99615.59;7288234;19;130090;-38
2023/12/04 07:07:23;;;;;;;149.52;7.53;;;;;;;25.35;39.75;99608.75;7287703;19;129650;-39
2023/12/04 07:09:48;;;;;;;183.73;8.37;;;;;;;25.34;39.88;99601.78;7284574;19;129717;-39
2023/12/04 07:12:14;;;;;;;215.50;10.63;;;;;;;25.35;40.07;99611.38;7285420;19;130953;-39
2023/12/04 07:14:39;;;;;;;220.55;10.05;;;;;;;25.33;40.21;99610.69;7288791;19;130540;-39
2023/12/04 07:17:04;;;;;;;215.57;10.67;;;;;;;25.34;39.44;99607.06;7288603;19;130625;-39
2023/12/04 07:19:30;;;;;;;261.83;12.03;;;;;;;25.38;39.41;99598.72;7286516;19;129897;-37
2023/12/04 07:21:55;;;;;;;164.10;7.90;;;;;;;25.31;39.94;99596.84;7288284;19;132558;-39
2023/12/04 07:24:21;;;;;;;235.40;10.53;;;;;;;25.37;39.58;99596.25;7289251;19;131142;-39
2023/12/04 07:26:46;;;;;;;223.23;10.70;;;;;;;25.36;39.51;99589.31;7288019;19;130216;-38
2023/12/04 07:29:12;;;;;;;157.97;7.97;;;;;;;25.41;39.87;99585.22;7287062;19;130224;-37
2023/12/04 07:31:37;;;;;;;157.00;7.77;;;;;;;25.32;39.29;99572.19;7287366;19;129461;-39
2023/12/04 07:34:03;;;;;;;245.07;10.97;;;;;;;25.42;39.95;99593.97;7287374;19;130671;-39
2023/12/04 07:36:29;;;;;;;187.80;9.03;;;;;;;25.41;40.47;99590.50;7285996;19;129923;-38
2023/12/04 07:38:55;;;;;;;198.85;9.32;;;;;;;25.42;39.86;99588.69;7286968;19;129445;-39
2023/12/04 07:41:21;;;;;;;160.23;7.70;;;;;;;25.45;39.18;99591.00;7286979;19;130900;-40
2023/12/04 07:43:47;;;;;;;208.80;9.90;;;;;;;25.48;39.56;99594.13;7288754;19;131166;-37
2023/12/04 07:46:13;;;;;;;320.27;15.10;;;;;;;25.48;40.02;99585.38;7283077;19;129901;-39
2023/12/04 07:48:39;;;;;;;208.20;9.88;;;;;;;25.51;39.67;99582.41;7286221;19;131249;-39
2023/12/04 07:51:05;;;;;;;170.80;8.38;;;;;;;25.56;39.20;99594.13;7287369;19;130747;-39
2023/12/04 07:53:31;;;;;;;220.67;10.77;;;;;;;25.46;38.63;99567.13;7287475;19;132092;-37
2023/12/04 07:55:57;;;;;;;190.10;9.13;;;;;;;25.53;38.89;99580.44;7285829;19;129277;-39
2023/12/04 07:58:22;;;;;;;165.03;8.30;;;;;;;25.47;38.26;99589.00;7285226;19;131390;-39
2023/12/04 08:00:48;;;;;;;219.43;11.00;;;;;;;25.33;35.32;99573.84;7284601;19;131115;-39
2023/12/04 08:03:13;;;;;;;255.73;12.83;;;;;;;25.33;35.31;99579.09;7286764;19;130168;-38
2023/12/04 08:05:38;;;;;;;193.50;9.93;;;;;;;25.23;35.57;99570.53;7286596;19;129460;-38
2023/12/04 08:08:04;;;;;;;184.03;9.57;;;;;;;25.22;36.51;99571.53;7285538;19;129599;-39
2023/12/04 08:10:29;;;;;;;225.90;10.87;;;;;;;25.17;36.35;99568.56;7281834;19;129691;-39
2023/12/04 08:12:55;;;;;;;162.83;8.53;;;;;;;25.16;36.48;99559.00;7287736;19;130423;-39
2023/12/04 08:15:20;;;;;;;205.07;10.90;;;;;;;25.27;36.37;99574.50;7286871;19;130758;-39
2023/12/04 08:17:45;;;;;;;213.50;10.50;;;;;;;25.34;35.98;99571.03;7286632;19;131464;-39
2023/12/04 08:20:14;;;;;;;256.65;12.73;;;;;;;25.39;36.04;99573.19;7283206;19;130184;-39
2023/12/04 08:22:41;;;;;;;194.75;9.68;;;;;;;25.29;35.74;99568.06;7285322;19;130390;-39
2023/12/04 08:25:07;;;;;;;156.38;7.65;;;;;;;25.30;36.18;99561.81;7287285;19;130222;-40
2023/12/04 08:27:32;;;;;;;157.68;8.73;;;;;;;25.36;35.92;99563.00;7286192;19;129943;-39
2023/12/04 08:29:58;;;;;;;230.13;10.83;;;;;;;25.38;35.95;99561.03;7284200;19;130076;-39
2023/12/04 08:32:23;;;;;;;233.90;11.40;;;;;;;25.41;35.70;99560.69;7283812;19;130280;-40
2023/12/04 08:34:48;;;;;;;151.83;8.07;;;;;;;25.33;35.62;99565.94;7286298;19;130107;-36
2023/12/04 08:37:14;;;;;;;211.93;10.63;;;;;;;25.32;35.50;99572.19;7285378;19;129886;-38
2023/12/04 08:39:39;;;;;;;216.90;10.67;;;;;;;25.36;35.68;99563.00;7284963;19;129524;-37
2023/12/04 08:42:05;;;;;;;200.50;10.17;;;;;;;25.32;36.21;99564.31;7284727;19;130366;-39
2023/12/04 08:44:30;;;;;;;151.17;8.17;;;;;;;25.33;36.14;99552.78;7284067;19;130870;-38
2023/12/04 08:46:57;;;;;;;202.23;9.97;;;;;;;25.31;36.24;99563.47;7284828;19;129661;-39
2023/12/04 08:49:23;;;;;;;239.68;11.93;;;;;;;25.42;35.80;99562.38;7283353;19;130897;-39
2023/12/04 08:51:50;;;;;;;201.67;10.33;;;;;;;25.50;35.53;99565.78;7287530;19;131199;-38
2023/12/04 08:54:16;;;;;;;200.45;10.93;;;;;;;25.41;35.86;99539.66;7284691;19;129520;-40
2023/12/04 08:56:41;;;;;;;229.10;11.90;;;;;;;25.45;36.06;99552.31;7285645;19;129942;-38
2023/12/04 08:59:07;;;;;;;239.73;12.17;;;;;;;25.40;35.50;99538.81;7284788;19;130153;-39
2023/12/04 09:01:32;;;;;;;188.97;10.20;;;;;;;25.56;35.98;99559.06;7284301;19;129496;-38
2023/12/04 09:03:57;;;;;;;138.10;7.87;;;;;;;25.60;35.09;99561.19;7284502;19;129479;-41
2023/12/04 09:06:23;;;;;;;176.00;9.67;;;;;;;25.60;36.00;99552.47;7283477;19;129628;-39
2023/12/04 09:08:48;;;;;;;228.17;11.73;;;;;;;25.55;35.72;99552.16;7284479;19;129634;-38
2023/12/04 09:11:14;;;;;;;228.37;12.17;;;;;;;25.59;35.21;99553.44;7288628;19;130983;-39
2023/12/04 09:13:39;;;;;;;187.20;10.20;;;;;;;25.60;35.22;99540.13;7293882;19;131678;-38
2023/12/04 09:16:05;;;;;;;249.87;12.70;;;;;;;25.48;35.98;99533.56;7292087;19;129444;-36
2023/12/04 09:18:30;;;;;;;177.37;9.73;;;;;;;25.59;35.58;99541.13;7291449;19;131825;-37
2023/12/04 09:20:55;;;;;;;180.90;9.57;;;;;;;25.58;35.18;99543.91;7292969;19;131051;-37
2023/12/04 09:23:21;;;;;;;215.90;11.57;;;;;;;25.57;35.65;99544.88;7293212;19;132436;-40
2023/12/04 09:25:46;;;;;;;212.93;10.90;;;;;;;25.64;35.78;99546.72;7293395;19;131358;-39
2023/12/04 09:28:11;;;;;;;145.37;8.00;;;;;;;25.61;35.41;99540.94;7291549;19;130527;-39
2023/12/04 09:30:37;;;;;;;143.20;8.20;;;;;;;25.61;35.31;99539.16;7291742;19;130780;-38
2023/12/04 09:33:02;;;;;;;131.40;7.50;;;;;;;25.61;36.16;99531.25;7289919;19;134200;-39
2023/12/04 09:35:28;;;;;;;287.77;13.87;;;;;;;25.65;36.57;99534.38;7291733;19;130128;-38
2023/12/04 09:37:54;;;;;;;126.87;7.13;;;;;;;25.64;36.96;99540.59;7289256;19;130136;-38
2023/12/04 09:40:19;;;;;;;207.87;11.07;;;;;;;25.75;36.78;99526.28;7287560;19;132777;-37
2023/12/04 09:42:45;;;;;;;234.47;11.67;;;;;;;25.72;37.24;99526.63;7288513;19;130439;-38
2023/12/04 09:45:12;;;;;;;224.93;10.87;;;;;;;25.73;37.76;99523.81;7290893;19;129669;-37
2023/12/04 09:47:37;;;;;;;272.75;13.68;;;;;;;25.81;37.70;99515.91;7290346;19;132277;-39
2023/12/04 09:50:04;;;;;;;185.90;9.83;;;;;;;25.69;37.87;99498.78;7290971;19;131816;-39
2023/12/04 09:52:31;;;;;;;266.75;13.45;;;;;;;25.80;37.42;99516.88;7289276;19;129541;-37
2023/12/04 09:54:56;;;;;;;188.50;9.90;;;;;;;25.85;37.93;99501.38;7293534;19;131339;-37
2023/12/04 09:57:24;;;;;;;243.27;12.50;;;;;;;25.83;37.73;99498.13;7291588;19;130174;-39
2023/12/04 09:59:51;;;;;;;157.18;8.20;;;;;;;25.85;37.70;99490.03;7289347;19;131121;-39
2023/12/04 10:02:16;;;;;;;226.93;11.25;;;;;;;25.86;38.13;99484.59;7288027;19;129396;-37
2023/12/04 10:04:42;;;;;;;145.17;7.70;;;;;;;25.89;38.51;99491.31;7291914;19;130225;-39
2023/12/04 10:07:08;;;;;;;166.87;8.47;;;;;;;25.83;38.30;99487.59;7292603;19;130705;-39
2023/12/04 10:09:33;;;;;;;125.20;6.80;;;;;;;25.87;38.64;99485.41;7287920;19;130404;-37
2023/12/04 10:11:59;;;;;;;191.00;9.37;;;;;;;25.83;38.17;99470.94;7292309;19;130140;-39
2023/12/04 10:14:25;;;;;;;240.30;11.63;;;;;;;25.87;38.89;99462.53;7290299;19;130850;-40
2023/12/04 10:16:52;;;;;;;183.00;9.50;;;;;;;25.95;38.43;99465.13;7291078;19;130716;-40
2023/12/04 10:19:26;;;;;;;190.98;9.63;;;;;;;25.91;38.79;99453.31;7289002;19;130428;-39
2023/12/04 10:21:52;;;;;;;162.02;8.40;;;;;;;25.96;38.70;99450.16;7291580;19;130658;-36
2023/12/04 10:24:38;;;;;;;238.95;11.48;;;;;;;25.95;38.27;99454.59;7290064;19;132104;-37
2023/12/04 10:27:05;;;;;;;231.45;11.25;;;;;;;25.92;38.64;99444.41;7290638;19;129831;-40
2023/12/04 10:29:45;;;;;;;194.40;9.95;;;;;;;25.94;38.64;99433.69;7289041;19;130211;-36
2023/12/04 10:32:11;;;;;;;171.55;9.07;;;;;;;25.96;39.17;99435.16;7291982;19;130086;-39
2023/12/04 10:34:36;;;;;;;167.63;8.43;;;;;;;26.02;39.09;99444.22;7291301;19;131570;-37
2023/12/04 10:37:04;;;;;;;248.17;11.97;;;;;;;25.98;39.09;99433.16;7288363;19;130314;-39
2023/12/04 10:39:30;;;;;;;185.45;9.25;;;;;;;25.98;38.92;99430.53;7288686;19;131559;-39
2023/12/04 10:42:01;;;;;;;179.77;9.00;;;;;;;26.02;38.77;99431.88;7288499;19;129324;-39
2023/12/04 10:44:27;;;;;;;192.65;9.82;;;;;;;26.03;39.34;99433.50;7290216;19;130019;-39
2023/12/04 10:46:54;;;;;;;168.43;8.33;;;;;;;26.08;39.06;99427.75;7290427;19;130294;-38
2023/12/04 10:49:20;;;;;;;186.07;9.23;;;;;;;26.08;38.95;99428.53;7288021;19;130665;-39
2023/12/04 10:51:46;;;;;;;210.87;10.37;;;;;;;26.12;38.99;99426.38;7289776;19;129928;-39
2023/12/04 10:54:12;;;;;;;171.03;8.53;;;;;;;26.09;39.49;99430.19;7289490;19;130378;-38
2023/12/04 10:56:40;;;;;;;226.23;10.32;;;;;;;26.04;39.22;99419.34;7289977;19;129557;-39